Time;durP1;ratioP1;P1;durP2;ratioP2;P2;SDS_P1;SDS_P2;PMS_P1;PMS_P2;Temp;Humidity;BMP_temperature;BMP_pressure;BME280_temperature;BME280_humidity;BME280_pressure;Samples;Min_cycle;Max_cycle;Signal;HPM_P1;HPM_P2
2021/06/20 00:00:49;;;;;;;9.88;7.72;;;22.80;99.90;;;;;;5126599;29;20201;-68
2021/06/20 00:03:21;;;;;;;8.50;7.68;;;22.80;99.90;;;;;;5126251;29;20201;-72
2021/06/20 00:05:59;;;;;;;8.55;7.65;;;22.80;99.90;;;;;;5126056;29;20213;-70
2021/06/20 00:08:31;;;;;;;8.70;7.88;;;22.70;99.90;;;;;;5124712;29;20582;-72
2021/06/20 00:11:03;;;;;;;9.38;8.13;;;22.70;99.90;;;;;;5126253;29;20204;-68
2021/06/20 00:13:35;;;;;;;11.00;8.52;;;22.60;99.90;;;;;;5125848;28;20212;-71
2021/06/20 00:16:07;;;;;;;8.50;7.15;;;22.60;99.90;;;;;;5125887;29;20695;-72
2021/06/20 00:18:39;;;;;;;9.75;8.13;;;22.60;99.90;;;;;;5123906;29;20201;-69
2021/06/20 00:21:12;;;;;;;9.80;8.35;;;22.50;99.90;;;;;;5126213;29;20208;-73
2021/06/20 00:23:45;;;;;;;10.77;8.65;;;22.50;99.90;;;;;;5126211;29;20189;-71
2021/06/20 00:26:17;;;;;;;9.55;8.23;;;22.50;99.90;;;;;;5125558;29;20216;-68
2021/06/20 00:28:49;;;;;;;8.95;8.05;;;22.50;99.90;;;;;;5125887;29;20205;-70
2021/06/20 00:31:21;;;;;;;9.23;8.32;;;22.40;99.90;;;;;;5125821;29;20201;-71
2021/06/20 00:33:53;;;;;;;10.15;8.93;;;22.40;99.90;;;;;;5125758;29;20211;-71
2021/06/20 00:36:25;;;;;;;9.50;8.35;;;22.40;99.90;;;;;;5125736;29;20233;-70
2021/06/20 00:38:57;;;;;;;9.35;8.35;;;22.30;99.90;;;;;;5125763;29;20205;-70
2021/06/20 00:41:28;;;;;;;10.35;9.35;;;22.30;99.90;;;;;;5125639;29;20228;-69
2021/06/20 00:44:02;;;;;;;11.32;8.65;;;22.30;99.90;;;;;;5125532;29;20212;-69
2021/06/20 00:46:34;;;;;;;9.45;8.38;;;22.30;99.90;;;;;;5126540;28;20201;-69
2021/06/20 00:49:07;;;;;;;10.43;9.32;;;22.20;99.90;;;;;;5129591;29;20208;-70
2021/06/20 00:51:40;;;;;;;9.60;8.55;;;22.20;99.90;;;;;;5129342;29;20636;-70
2021/06/20 00:54:12;;;;;;;10.40;8.60;;;22.20;99.90;;;;;;5129296;29;20211;-73
2021/06/20 00:56:44;;;;;;;9.40;8.35;;;22.20;99.90;;;;;;5129584;29;20239;-68
2021/06/20 00:59:16;;;;;;;9.43;8.00;;;22.10;99.90;;;;;;5129897;29;20215;-70
2021/06/20 01:01:48;;;;;;;10.27;9.38;;;22.10;99.90;;;;;;5129779;29;20212;-70
2021/06/20 01:04:19;;;;;;;11.43;9.25;;;22.10;99.90;;;;;;5129378;29;20539;-70
2021/06/20 01:06:51;;;;;;;9.85;8.85;;;22.10;99.90;;;;;;5129071;29;20209;-68
2021/06/20 01:09:23;;;;;;;9.95;8.95;;;22.10;99.90;;;;;;5129396;29;20201;-71
2021/06/20 01:11:55;;;;;;;9.38;8.48;;;22.00;99.90;;;;;;5129021;29;20208;-70
2021/06/20 01:14:28;;;;;;;9.90;8.80;;;22.00;99.90;;;;;;5128781;29;20236;-68
2021/06/20 01:17:00;;;;;;;10.40;9.30;;;22.00;99.90;;;;;;5128919;29;20236;-69
2021/06/20 01:19:34;;;;;;;12.63;9.00;;;21.90;99.90;;;;;;5128986;29;20248;-68
2021/06/20 01:22:33;;;;;;;10.07;9.18;;;21.90;99.90;;;;;;5128988;29;20205;-69
2021/06/20 01:25:12;;;;;;;10.73;9.65;;;21.90;99.90;;;;;;5110200;29;20216;-70
2021/06/20 01:27:54;;;;;;;10.10;9.15;;;21.90;99.90;;;;;;5128552;29;20205;-69
2021/06/20 01:30:28;;;;;;;12.77;9.95;;;21.90;99.90;;;;;;5128955;29;20205;-70
2021/06/20 01:33:03;;;;;;;11.50;10.27;;;21.80;99.90;;;;;;5130038;29;20287;-69
2021/06/20 01:35:35;;;;;;;12.98;10.85;;;21.80;99.90;;;;;;5129875;29;20224;-72
2021/06/20 01:38:08;;;;;;;12.18;10.35;;;21.70;99.90;;;;;;5128543;29;20213;-70
2021/06/20 01:40:41;;;;;;;10.77;9.68;;;21.70;99.90;;;;;;5128243;29;20829;-68
2021/06/20 01:43:13;;;;;;;12.95;10.63;;;21.70;99.90;;;;;;5129078;29;20240;-68
2021/06/20 01:45:44;;;;;;;12.20;9.60;;;21.70;99.90;;;;;;5129097;29;20208;-69
2021/06/20 01:48:16;;;;;;;11.48;9.23;;;21.60;99.90;;;;;;5111375;29;20580;-68
2021/06/20 01:50:48;;;;;;;11.30;10.05;;;21.60;99.90;;;;;;5128070;29;20205;-69
2021/06/20 01:53:20;;;;;;;11.07;9.98;;;21.60;99.90;;;;;;5128213;29;20216;-72
2021/06/20 01:55:52;;;;;;;11.15;9.90;;;21.50;99.90;;;;;;5128157;29;20702;-69
2021/06/20 01:58:24;;;;;;;11.18;9.95;;;21.50;99.90;;;;;;5127565;28;20582;-68
2021/06/20 02:00:57;;;;;;;11.25;10.18;;;21.50;99.90;;;;;;5110978;29;20215;-67
2021/06/20 02:03:29;;;;;;;13.13;11.93;;;21.40;99.90;;;;;;5127981;29;20205;-67
2021/06/20 02:06:01;;;;;;;12.73;11.43;;;21.40;99.90;;;;;;5127712;29;20303;-69
2021/06/20 02:08:33;;;;;;;13.48;11.43;;;21.40;99.90;;;;;;5127773;29;20201;-68
2021/06/20 02:11:05;;;;;;;12.90;11.60;;;21.40;99.90;;;;;;5127874;29;20255;-68
2021/06/20 02:13:38;;;;;;;12.15;10.95;;;21.40;99.90;;;;;;5127703;29;20212;-69
2021/06/20 02:16:09;;;;;;;12.38;11.07;;;21.40;99.90;;;;;;5127421;29;20225;-68
2021/06/20 02:18:42;;;;;;;12.05;10.63;;;21.30;99.90;;;;;;5129438;29;20209;-68
2021/06/20 02:21:13;;;;;;;13.48;10.70;;;21.30;99.90;;;;;;5129215;29;20220;-68
2021/06/20 02:23:45;;;;;;;13.13;11.40;;;21.30;99.90;;;;;;5129455;29;20205;-68
2021/06/20 02:26:18;;;;;;;13.35;11.50;;;21.30;99.90;;;;;;5127499;29;20299;-68
2021/06/20 02:28:50;;;;;;;13.07;11.68;;;21.30;99.90;;;;;;5127422;29;20269;-68
2021/06/20 02:31:21;;;;;;;11.80;10.52;;;21.30;99.90;;;;;;5129100;29;20588;-69
2021/06/20 02:33:53;;;;;;;12.25;10.98;;;21.30;99.90;;;;;;5128864;29;20233;-68
2021/06/20 02:36:30;;;;;;;11.63;10.52;;;21.30;99.90;;;;;;5129744;29;20271;-68
2021/06/20 02:39:03;;;;;;;12.23;10.95;;;21.30;99.90;;;;;;5128418;29;20197;-72
2021/06/20 02:41:35;;;;;;;11.45;10.30;;;21.30;99.90;;;;;;5127608;29;20547;-69
2021/06/20 02:44:07;;;;;;;12.82;11.60;;;21.30;99.90;;;;;;5129276;29;20208;-70
2021/06/20 02:46:39;;;;;;;11.32;10.23;;;21.30;99.90;;;;;;5130277;29;20220;-70
2021/06/20 02:49:11;;;;;;;11.45;9.77;;;21.40;99.90;;;;;;5130567;29;20229;-69
2021/06/20 02:51:44;;;;;;;13.05;10.98;;;21.40;99.90;;;;;;5129851;29;20205;-78
2021/06/20 02:54:16;;;;;;;13.35;12.00;;;21.40;99.90;;;;;;5130829;29;20205;-69
2021/06/20 02:56:48;;;;;;;11.90;10.52;;;21.50;99.90;;;;;;5127110;29;20316;-69
2021/06/20 02:59:20;;;;;;;14.00;11.95;;;21.50;99.90;;;;;;5127467;29;20624;-69
2021/06/20 03:01:52;;;;;;;12.70;11.45;;;21.50;99.90;;;;;;5130358;29;20215;-69
2021/06/20 03:04:24;;;;;;;12.18;10.85;;;21.50;99.90;;;;;;5129901;29;20277;-69
2021/06/20 03:06:56;;;;;;;12.32;11.07;;;21.50;99.90;;;;;;5129671;29;20216;-74
2021/06/20 03:09:28;;;;;;;14.63;12.02;;;21.50;99.90;;;;;;5128899;28;20215;-72
2021/06/20 03:12:00;;;;;;;13.50;10.57;;;21.60;99.90;;;;;;5129113;29;20707;-70
2021/06/20 03:14:34;;;;;;;13.07;11.65;;;21.60;99.90;;;;;;5129532;29;20233;-68
2021/06/20 03:17:07;;;;;;;13.98;11.05;;;21.60;99.90;;;;;;5128384;29;20566;-71
2021/06/20 03:19:40;;;;;;;13.30;11.00;;;21.70;99.90;;;;;;5127480;29;20201;-71
2021/06/20 03:22:13;;;;;;;13.02;10.90;;;21.70;99.90;;;;;;5129718;29;20208;-70
2021/06/20 03:24:47;;;;;;;14.35;11.50;;;21.70;99.90;;;;;;5130067;29;20197;-69
2021/06/20 03:27:20;;;;;;;12.13;10.85;;;21.80;99.90;;;;;;5129341;29;20604;-71
2021/06/20 03:29:52;;;;;;;11.82;10.63;;;21.90;99.90;;;;;;5129991;29;20216;-71
2021/06/20 03:32:24;;;;;;;13.15;11.70;;;21.90;99.90;;;;;;5110077;29;20201;-70
2021/06/20 03:34:55;;;;;;;13.30;11.05;;;22.00;99.90;;;;;;5126537;29;20220;-69
2021/06/20 03:37:27;;;;;;;11.18;10.07;;;22.00;99.90;;;;;;5129434;29;20239;-70
2021/06/20 03:39:59;;;;;;;11.82;9.75;;;22.10;99.90;;;;;;5129916;29;20296;-70
2021/06/20 03:42:31;;;;;;;13.95;10.48;;;22.20;99.90;;;;;;5111293;29;20255;-69
2021/06/20 03:45:05;;;;;;;11.82;10.25;;;22.30;99.90;;;;;;5126473;29;20605;-72
2021/06/20 03:47:38;;;;;;;12.40;11.15;;;22.30;99.90;;;;;;5126539;29;20209;-71
2021/06/20 03:50:11;;;;;;;13.65;10.05;;;22.40;99.90;;;;;;5126339;29;20211;-70
2021/06/20 03:52:43;;;;;;;11.30;9.80;;;22.50;99.90;;;;;;5109524;29;20590;-71
2021/06/20 03:55:15;;;;;;;11.73;10.27;;;22.60;99.90;;;;;;5126287;29;20660;-69
2021/06/20 03:57:48;;;;;;;12.30;9.57;;;22.70;99.90;;;;;;5125810;29;20238;-68
2021/06/20 04:00:20;;;;;;;11.48;10.27;;;22.70;99.90;;;;;;5126422;29;20227;-71
2021/06/20 04:02:52;;;;;;;11.95;9.82;;;22.80;99.90;;;;;;5126146;29;20215;-69
2021/06/20 04:05:23;;;;;;;10.45;9.43;;;22.90;99.90;;;;;;5125857;29;20582;-71
2021/06/20 04:07:55;;;;;;;10.85;9.75;;;22.90;99.90;;;;;;5126669;29;20600;-69
2021/06/20 04:10:27;;;;;;;12.63;9.75;;;23.00;99.90;;;;;;5126034;29;20682;-69
2021/06/20 04:13:00;;;;;;;13.82;10.05;;;23.00;99.90;;;;;;5126042;29;20201;-70
2021/06/20 04:15:32;;;;;;;11.20;9.15;;;23.10;99.90;;;;;;5128767;29;20232;-70
2021/06/20 04:18:04;;;;;;;11.15;9.93;;;23.20;99.90;;;;;;5126567;29;20224;-69
2021/06/20 04:20:36;;;;;;;11.60;10.27;;;23.20;99.90;;;;;;5126029;29;20312;-72
2021/06/20 04:23:09;;;;;;;15.57;10.63;;;23.20;99.90;;;;;;5129517;28;20224;-70
2021/06/20 04:25:41;;;;;;;12.48;9.65;;;23.30;99.90;;;;;;5130062;29;20211;-69
2021/06/20 04:28:16;;;;;;;11.15;10.05;;;23.30;99.90;;;;;;5113102;29;20207;-70
2021/06/20 04:30:53;;;;;;;11.80;9.85;;;23.40;99.90;;;;;;5129730;29;20212;-70
2021/06/20 04:33:25;;;;;;;13.60;9.82;;;23.40;99.90;;;;;;5129970;29;20220;-69
2021/06/20 04:35:58;;;;;;;12.05;10.05;;;23.50;99.90;;;;;;5129742;29;20228;-69
2021/06/20 04:38:30;;;;;;;10.23;9.15;;;23.50;99.90;;;;;;5112571;29;20220;-72
2021/06/20 04:41:07;;;;;;;13.38;9.63;;;23.60;99.90;;;;;;5129417;29;20668;-71
2021/06/20 04:46:29;;;;;;;11.65;10.15;;;23.80;99.90;;;;;;5129407;29;20215;-71
2021/06/20 04:49:07;;;;;;;11.32;9.65;;;23.80;99.90;;;;;;5129513;29;20209;-70
2021/06/20 04:51:40;;;;;;;11.18;9.93;;;23.90;99.90;;;;;;5129465;29;20259;-72
2021/06/20 04:54:13;;;;;;;11.15;10.02;;;24.00;99.90;;;;;;5129675;29;20200;-69
2021/06/20 04:56:45;;;;;;;11.13;9.75;;;24.00;99.90;;;;;;5129927;29;20239;-71
2021/06/20 04:59:17;;;;;;;11.88;9.70;;;24.10;99.90;;;;;;5130654;29;20228;-69
2021/06/20 05:01:49;;;;;;;11.27;9.15;;;24.20;99.90;;;;;;5129840;29;20566;-71
2021/06/20 05:04:21;;;;;;;12.15;9.55;;;24.30;99.90;;;;;;5130735;29;20618;-71
2021/06/20 05:06:53;;;;;;;14.82;10.32;;;24.30;99.90;;;;;;5129425;29;20200;-70
2021/06/20 05:09:25;;;;;;;13.43;9.80;;;24.40;99.90;;;;;;5112139;29;20238;-70
2021/06/20 05:11:57;;;;;;;10.07;9.05;;;24.50;99.90;;;;;;5129132;29;20205;-70
2021/06/20 05:14:29;;;;;;;10.77;9.20;;;24.70;99.90;;;;;;5128923;29;20642;-70
2021/06/20 05:17:01;;;;;;;10.60;9.55;;;24.80;99.90;;;;;;5128878;29;20236;-74
2021/06/20 05:19:33;;;;;;;13.88;9.25;;;24.90;99.90;;;;;;5129167;29;20212;-71
2021/06/20 05:22:06;;;;;;;9.90;8.93;;;25.00;99.90;;;;;;5129071;29;20207;-71
2021/06/20 05:24:39;;;;;;;11.05;8.73;;;25.10;99.90;;;;;;5130448;29;20232;-74
2021/06/20 05:27:12;;;;;;;11.68;9.35;;;25.30;99.90;;;;;;5129939;29;20204;-71
2021/06/20 05:29:43;;;;;;;14.70;8.98;;;25.40;99.90;;;;;;5130266;29;20267;-71
2021/06/20 05:32:15;;;;;;;14.70;9.10;;;25.60;99.90;;;;;;5130471;29;20216;-69
2021/06/20 05:34:47;;;;;;;11.13;9.38;;;25.60;99.90;;;;;;5128901;28;20201;-72
2021/06/20 05:37:19;;;;;;;9.50;8.45;;;25.70;99.90;;;;;;5128619;29;20691;-70
2021/06/20 05:39:52;;;;;;;9.43;8.02;;;25.90;99.90;;;;;;5128657;29;20201;-71
2021/06/20 05:42:23;;;;;;;9.95;7.68;;;26.70;99.90;;;;;;5128580;29;20660;-70
2021/06/20 05:44:55;;;;;;;7.80;6.60;;;28.40;99.90;;;;;;5128729;29;20200;-68
2021/06/20 05:47:27;;;;;;;7.32;6.65;;;30.10;99.90;;;;;;5128468;29;20212;-69
2021/06/20 05:50:00;;;;;;;11.45;6.15;;;30.70;99.90;;;;;;5128406;29;20212;-70
2021/06/20 05:52:32;;;;;;;7.68;6.68;;;30.80;99.90;;;;;;5096013;29;20679;-71
2021/06/20 05:55:06;;;;;;;7.00;6.30;;;30.50;99.90;;;;;;5128178;29;20208;-67
2021/06/20 05:57:38;;;;;;;11.85;7.40;;;30.20;99.90;;;;;;5127761;29;20228;-70
2021/06/20 06:00:11;;;;;;;7.30;6.32;;;29.60;99.90;;;;;;5128530;29;20216;-71
2021/06/20 06:02:43;;;;;;;7.85;7.05;;;29.30;99.90;;;;;;5127341;29;20209;-70
2021/06/20 06:05:15;;;;;;;8.65;6.97;;;29.20;99.90;;;;;;5127489;29;20632;-70
2021/06/20 06:07:47;;;;;;;10.02;7.25;;;29.70;99.90;;;;;;5127358;29;20276;-69
2021/06/20 06:10:29;;;;;;;8.70;7.25;;;30.80;99.90;;;;;;5127802;29;20615;-69
2021/06/20 06:13:01;;;;;;;7.18;6.57;;;31.90;99.90;;;;;;5126835;28;20707;-70
2021/06/20 06:15:33;;;;;;;9.07;6.68;;;33.40;99.90;;;;;;5110822;29;20244;-68
2021/06/20 06:18:05;;;;;;;8.55;6.63;;;35.00;99.90;;;;;;5127827;29;20233;-71
2021/06/20 06:20:37;;;;;;;7.53;6.20;;;36.40;99.90;;;;;;5128110;29;20235;-72
2021/06/20 06:23:13;;;;;;;6.88;5.45;;;37.60;99.90;;;;;;5127910;29;20212;-70
2021/06/20 06:25:45;;;;;;;8.57;5.95;;;39.00;96.70;;;;;;5127866;29;20204;-72
2021/06/20 06:28:17;;;;;;;6.10;5.50;;;39.60;93.80;;;;;;5127687;29;20671;-71
2021/06/20 06:30:49;;;;;;;5.90;5.20;;;40.40;91.60;;;;;;5127766;29;20192;-68
2021/06/20 06:33:21;;;;;;;6.20;5.60;;;40.50;88.80;;;;;;5123064;29;20208;-73
2021/06/20 06:35:53;;;;;;;6.75;4.82;;;40.90;86.50;;;;;;5109978;29;20215;-72
2021/06/20 06:38:26;;;;;;;10.25;5.25;;;41.00;85.10;;;;;;5127119;29;20275;-68
2021/06/20 06:40:58;;;;;;;6.70;5.25;;;41.10;83.20;;;;;;5126479;29;20206;-73
2021/06/20 06:43:30;;;;;;;8.98;5.88;;;41.00;82.10;;;;;;5127215;29;20212;-73
2021/06/20 06:46:02;;;;;;;6.22;5.55;;;41.00;81.40;;;;;;5126902;28;20201;-72
2021/06/20 06:48:34;;;;;;;7.25;5.40;;;41.20;79.30;;;;;;5126882;29;20304;-72
2021/06/20 06:51:06;;;;;;;6.28;5.65;;;41.00;79.10;;;;;;5126925;29;20542;-72
2021/06/20 06:53:38;;;;;;;7.25;5.65;;;40.70;79.30;;;;;;5126964;29;20200;-71
2021/06/20 06:56:10;;;;;;;5.97;5.10;;;40.40;78.50;;;;;;5126728;29;20216;-74
2021/06/20 06:58:41;;;;;;;5.82;5.00;;;39.90;78.60;;;;;;5126883;29;20583;-69
2021/06/20 07:01:13;;;;;;;8.93;5.97;;;39.80;79.60;;;;;;5126600;29;20200;-72
2021/06/20 07:03:45;;;;;;;5.93;4.60;;;40.40;79.20;;;;;;5126909;29;20196;-70
2021/06/20 07:06:19;;;;;;;6.88;4.80;;;40.80;77.30;;;;;;5126682;29;20204;-73
2021/06/20 07:08:52;;;;;;;7.32;5.18;;;41.10;75.20;;;;;;5126514;29;20212;-75
2021/06/20 07:11:24;;;;;;;4.97;4.57;;;41.30;74.70;;;;;;5109721;29;20200;-73
2021/06/20 07:13:56;;;;;;;5.38;4.60;;;41.30;73.70;;;;;;5126522;28;20573;-75
2021/06/20 07:16:28;;;;;;;6.75;4.97;;;41.10;72.50;;;;;;5126469;29;20212;-76
2021/06/20 07:18:59;;;;;;;6.25;5.05;;;40.60;74.20;;;;;;5126351;29;20214;-69
2021/06/20 07:21:31;;;;;;;7.28;5.30;;;40.10;74.20;;;;;;5126697;29;20592;-67
2021/06/20 07:24:04;;;;;;;6.13;5.53;;;39.50;75.10;;;;;;5126459;29;20208;-73
2021/06/20 07:26:36;;;;;;;7.90;4.88;;;38.80;76.80;;;;;;5126505;29;20686;-74
2021/06/20 07:29:07;;;;;;;7.00;5.88;;;38.10;77.20;;;;;;5109115;29;20205;-71
2021/06/20 07:31:39;;;;;;;7.43;5.82;;;37.40;78.60;;;;;;5126286;29;20212;-68
2021/06/20 07:34:11;;;;;;;6.10;5.50;;;36.90;79.20;;;;;;5109551;29;20193;-70
2021/06/20 07:36:43;;;;;;;10.43;5.50;;;36.40;80.40;;;;;;5126438;29;20231;-72
2021/06/20 07:39:16;;;;;;;8.35;5.55;;;35.90;80.20;;;;;;5126417;29;20209;-74
2021/06/20 07:41:48;;;;;;;6.88;5.45;;;35.70;81.50;;;;;;5125963;29;20209;-70
2021/06/20 07:44:21;;;;;;;6.30;4.95;;;35.40;80.30;;;;;;5126375;29;20213;-75
2021/06/20 07:46:53;;;;;;;6.82;5.30;;;35.00;80.80;;;;;;5126086;29;20201;-72
2021/06/20 07:49:25;;;;;;;5.70;4.68;;;34.80;81.30;;;;;;5126104;29;20213;-63
2021/06/20 07:51:57;;;;;;;7.97;5.15;;;34.80;81.30;;;;;;5126481;29;20229;-73
2021/06/20 07:54:29;;;;;;;8.98;5.18;;;34.70;82.90;;;;;;5126232;29;20205;-71
2021/06/20 07:57:01;;;;;;;6.72;5.25;;;34.70;83.00;;;;;;5125663;29;20236;-73
2021/06/20 07:59:33;;;;;;;6.25;5.20;;;34.60;83.20;;;;;;5126057;29;20209;-75
2021/06/20 08:02:05;;;;;;;5.82;5.22;;;34.50;82.50;;;;;;5126112;29;20557;-73
2021/06/20 08:04:38;;;;;;;6.15;5.10;;;34.40;82.90;;;;;;5125939;29;20197;-73
2021/06/20 08:07:10;;;;;;;8.73;5.80;;;34.40;83.10;;;;;;5126121;29;20205;-64
2021/06/20 08:09:43;;;;;;;24.13;8.85;;;34.20;81.20;;;;;;5126086;29;20611;-64
2021/06/20 08:12:15;;;;;;;20.58;8.48;;;34.30;82.50;;;;;;5125708;29;20212;-65
2021/06/20 08:14:47;;;;;;;17.77;9.10;;;34.30;83.20;;;;;;5125680;28;20232;-65
2021/06/20 08:17:19;;;;;;;13.13;6.85;;;34.30;83.90;;;;;;5125509;29;20252;-70
2021/06/20 08:19:52;;;;;;;8.43;5.97;;;34.20;82.80;;;;;;5126062;29;20686;-64
2021/06/20 08:22:24;;;;;;;7.47;5.18;;;34.10;84.60;;;;;;5124589;29;20205;-68
2021/06/20 08:24:56;;;;;;;8.25;5.70;;;33.90;83.40;;;;;;5124012;28;20205;-67
2021/06/20 08:27:28;;;;;;;8.25;5.20;;;33.90;83.90;;;;;;5124988;29;20204;-67
2021/06/20 08:30:02;;;;;;;9.63;5.82;;;33.90;83.80;;;;;;5124295;28;20201;-64
2021/06/20 08:32:34;;;;;;;8.07;5.10;;;33.70;83.00;;;;;;5125055;28;20841;-64
2021/06/20 08:35:07;;;;;;;6.97;5.20;;;33.40;83.40;;;;;;5125260;29;20291;-61
2021/06/20 08:37:39;;;;;;;8.32;5.20;;;33.40;85.10;;;;;;5124962;29;20225;-65
2021/06/20 08:40:11;;;;;;;7.05;5.40;;;33.50;84.20;;;;;;5125426;29;20201;-69
2021/06/20 08:42:43;;;;;;;7.68;5.13;;;33.50;84.10;;;;;;5125428;29;20212;-67
2021/06/20 08:45:15;;;;;;;6.07;5.20;;;33.70;84.10;;;;;;5109226;29;20287;-64
2021/06/20 08:47:48;;;;;;;10.30;5.35;;;33.30;83.30;;;;;;5110184;29;20213;-63
2021/06/20 08:50:20;;;;;;;7.03;5.68;;;33.30;83.90;;;;;;5126530;29;20204;-66
2021/06/20 08:52:54;;;;;;;9.80;6.10;;;33.30;85.50;;;;;;5125370;28;20209;-67
2021/06/20 08:55:26;;;;;;;7.00;5.18;;;33.20;85.20;;;;;;5124383;28;20209;-64
2021/06/20 08:58:15;;;;;;;7.55;5.50;;;33.30;84.90;;;;;;5124444;28;20259;-65
2021/06/20 09:00:48;;;;;;;5.85;4.90;;;33.10;83.80;;;;;;5124147;29;20213;-63
2021/06/20 09:03:20;;;;;;;6.00;5.38;;;33.20;84.10;;;;;;5124836;28;20204;-61
2021/06/20 09:06:01;;;;;;;6.70;4.72;;;33.10;83.70;;;;;;5125100;29;20564;-62
2021/06/20 09:08:33;;;;;;;6.50;4.70;;;33.10;84.00;;;;;;5100059;29;20279;-62
2021/06/20 09:11:05;;;;;;;5.93;4.90;;;33.00;84.00;;;;;;5129197;28;20205;-62
2021/06/20 09:13:37;;;;;;;8.05;5.15;;;33.10;84.50;;;;;;5131119;28;20209;-65
2021/06/20 09:16:09;;;;;;;6.35;4.57;;;33.10;84.80;;;;;;5131769;28;20209;-65
2021/06/20 09:18:52;;;;;;;8.38;4.90;;;33.20;84.10;;;;;;5127640;29;20219;-59
2021/06/20 09:21:25;;;;;;;6.07;4.00;;;33.10;83.70;;;;;;5128008;29;20208;-59
2021/06/20 09:23:59;;;;;;;4.85;4.35;;;33.00;83.20;;;;;;5128668;29;20205;-63
2021/06/20 09:26:38;;;;;;;8.65;4.55;;;33.00;82.90;;;;;;5136430;28;20203;-56
2021/06/20 09:29:10;;;;;;;5.22;4.10;;;32.70;82.00;;;;;;5128307;29;20197;-63
2021/06/20 09:31:47;;;;;;;6.47;4.00;;;32.60;81.70;;;;;;5128311;29;20197;-62
2021/06/20 09:34:19;;;;;;;7.47;4.40;;;32.50;82.20;;;;;;5128232;29;20691;-63
2021/06/20 09:37:03;;;;;;;6.03;3.88;;;32.30;81.60;;;;;;5112663;29;20243;-62
2021/06/20 09:39:35;;;;;;;6.28;3.72;;;32.40;82.20;;;;;;5127772;29;20212;-60
2021/06/20 09:42:10;;;;;;;5.68;3.90;;;32.50;82.70;;;;;;5128195;29;20193;-60
2021/06/20 09:44:44;;;;;;;6.00;3.40;;;32.50;83.60;;;;;;5127931;29;20208;-63
2021/06/20 09:47:22;;;;;;;4.60;3.58;;;32.50;80.50;;;;;;5113542;28;20212;-63
2021/06/20 09:49:55;;;;;;;4.72;3.40;;;32.40;80.20;;;;;;5126891;29;20255;-57
2021/06/20 09:52:29;;;;;;;6.72;3.45;;;32.40;83.10;;;;;;5127890;29;20197;-60
2021/06/20 09:55:10;;;;;;;11.30;3.45;;;32.30;80.90;;;;;;5127621;29;20520;-61
2021/06/20 09:57:44;;;;;;;8.13;3.92;;;32.30;82.80;;;;;;5127994;28;20311;-61
2021/06/20 10:00:17;;;;;;;4.18;3.70;;;32.30;83.60;;;;;;5127914;29;20200;-65
2021/06/20 10:02:49;;;;;;;6.20;3.38;;;32.10;82.50;;;;;;5128758;29;20197;-61
2021/06/20 10:05:21;;;;;;;6.93;3.42;;;31.90;82.90;;;;;;5129783;29;20220;-62
2021/06/20 10:07:54;;;;;;;12.00;3.13;;;31.70;82.00;;;;;;5129220;29;20528;-61
2021/06/20 10:10:26;;;;;;;8.23;3.25;;;31.40;82.30;;;;;;5129105;29;20201;-60
2021/06/20 10:12:58;;;;;;;7.05;3.58;;;31.40;82.70;;;;;;5129093;29;20935;-55
2021/06/20 10:15:31;;;;;;;6.43;3.53;;;31.40;83.80;;;;;;5128733;28;20774;-62
2021/06/20 10:18:06;;;;;;;8.00;3.05;;;31.50;84.40;;;;;;5127881;29;20282;-63
2021/06/20 10:20:39;;;;;;;8.23;3.40;;;31.60;83.80;;;;;;5127900;28;20598;-71
2021/06/20 10:23:24;;;;;;;11.25;3.80;;;31.50;83.70;;;;;;5128139;29;20224;-64
2021/06/20 10:26:08;;;;;;;10.98;3.50;;;31.20;83.90;;;;;;5128964;29;20201;-70
2021/06/20 10:28:40;;;;;;;6.93;3.97;;;30.90;84.60;;;;;;5127388;29;20469;-69
2021/06/20 10:31:12;;;;;;;6.13;3.50;;;31.00;84.80;;;;;;5129088;29;20557;-73
2021/06/20 10:33:45;;;;;;;13.07;3.83;;;30.90;84.40;;;;;;5111857;29;20704;-64
2021/06/20 10:36:17;;;;;;;7.75;3.45;;;30.90;83.00;;;;;;5128993;29;20535;-63
2021/06/20 10:38:52;;;;;;;9.15;2.97;;;30.80;83.80;;;;;;5129377;29;20224;-73
2021/06/20 10:41:25;;;;;;;7.65;3.25;;;30.50;84.10;;;;;;5128789;29;20203;-61
2021/06/20 10:44:02;;;;;;;11.23;3.38;;;30.60;83.30;;;;;;5129504;29;20227;-61
2021/06/20 10:46:35;;;;;;;12.20;3.13;;;30.60;83.20;;;;;;5129581;29;20204;-69
2021/06/20 10:49:16;;;;;;;10.68;3.08;;;30.80;82.00;;;;;;5130101;29;20201;-55
2021/06/20 10:51:48;;;;;;;10.13;3.22;;;30.90;79.70;;;;;;5128524;29;20196;-68
2021/06/20 10:54:27;;;;;;;11.15;3.28;;;30.90;82.10;;;;;;5127763;29;20196;-62
2021/06/20 10:57:01;;;;;;;6.47;3.20;;;30.80;81.80;;;;;;5126885;29;20197;-63
2021/06/20 10:59:33;;;;;;;8.55;2.60;;;30.70;82.80;;;;;;5127245;29;20220;-60
2021/06/20 11:02:38;;;;;;;8.70;2.80;;;30.80;80.80;;;;;;5126954;29;20196;-63
2021/06/20 11:05:27;;;;;;;10.20;3.35;;;30.90;79.70;;;;;;5126691;29;20196;-61
2021/06/20 11:08:04;;;;;;;5.82;2.80;;;30.90;80.00;;;;;;5126918;29;20244;-60
2021/06/20 11:10:37;;;;;;;9.35;2.97;;;31.00;80.70;;;;;;5109989;29;20721;-61
2021/06/20 11:13:19;;;;;;;6.72;2.70;;;31.00;80.60;;;;;;5126962;29;20257;-60
2021/06/20 11:16:01;;;;;;;6.43;2.70;;;31.00;78.80;;;;;;5126552;29;20711;-60
2021/06/20 11:18:34;;;;;;;5.47;3.00;;;30.90;79.70;;;;;;5126919;29;20630;-59
2021/06/20 11:21:06;;;;;;;13.05;3.25;;;30.70;80.30;;;;;;5127115;29;20189;-60
2021/06/20 11:23:40;;;;;;;9.00;3.15;;;30.70;81.20;;;;;;5126954;29;20228;-64
2021/06/20 11:26:12;;;;;;;5.65;2.92;;;30.80;80.90;;;;;;5126791;29;20192;-61
2021/06/20 11:32:33;;;;;;;12.07;3.22;;;30.80;80.80;;;;;;5125852;28;20180;-60
2021/06/20 11:35:12;;;;;;;6.25;3.30;;;30.90;81.10;;;;;;5109389;29;20188;-62
2021/06/20 11:37:47;;;;;;;7.22;3.45;;;30.90;81.20;;;;;;5126363;29;20229;-62
2021/06/20 11:40:22;;;;;;;5.00;2.90;;;30.90;81.80;;;;;;5126514;29;20526;-63
2021/06/20 11:42:56;;;;;;;9.32;3.42;;;30.90;81.40;;;;;;5126629;29;20541;-60
2021/06/20 11:49:27;;;;;;;6.15;2.75;;;30.90;80.60;;;;;;5126419;29;20683;-62
2021/06/20 11:52:02;;;;;;;7.28;2.88;;;30.90;79.50;;;;;;5126478;29;20651;-62
2021/06/20 11:54:34;;;;;;;6.32;2.80;;;30.90;79.70;;;;;;5126449;29;20540;-69
2021/06/20 11:57:06;;;;;;;4.72;3.10;;;30.80;79.70;;;;;;5109687;29;20193;-59
2021/06/20 11:59:40;;;;;;;8.48;3.15;;;30.70;79.40;;;;;;5126681;29;20221;-61
2021/06/20 12:02:14;;;;;;;5.13;2.72;;;30.60;79.20;;;;;;5126605;29;20192;-60
2021/06/20 12:04:46;;;;;;;7.22;3.08;;;30.60;77.50;;;;;;5126019;29;20203;-65
2021/06/20 12:07:18;;;;;;;4.85;3.10;;;30.60;79.10;;;;;;5126259;29;20201;-62
2021/06/20 12:09:51;;;;;;;6.25;3.00;;;30.60;78.20;;;;;;5126421;29;20592;-59
2021/06/20 12:12:23;;;;;;;3.58;2.70;;;30.60;78.40;;;;;;5126441;29;20208;-63
2021/06/20 12:14:57;;;;;;;10.40;3.03;;;30.70;79.50;;;;;;5125821;28;20270;-62
2021/06/20 12:17:29;;;;;;;5.88;2.95;;;30.70;77.30;;;;;;5126033;29;20208;-60
2021/06/20 12:20:02;;;;;;;6.65;3.10;;;30.70;77.50;;;;;;5125938;29;20201;-61
2021/06/20 12:22:44;;;;;;;8.93;3.53;;;30.60;78.40;;;;;;5125985;29;20193;-59
2021/06/20 12:25:16;;;;;;;6.28;2.90;;;30.70;79.60;;;;;;5126157;29;20201;-59
2021/06/20 12:27:49;;;;;;;6.90;3.25;;;30.60;79.40;;;;;;5126110;29;20197;-58
2021/06/20 12:30:24;;;;;;;8.27;3.30;;;30.60;79.40;;;;;;5125657;29;20197;-58
2021/06/20 12:33:07;;;;;;;5.50;3.25;;;30.60;79.60;;;;;;5109434;29;20199;-69
2021/06/20 12:35:40;;;;;;;5.90;3.13;;;30.70;80.70;;;;;;5126519;29;20286;-70
2021/06/20 12:38:15;;;;;;;8.55;3.30;;;30.90;81.20;;;;;;5126231;29;20221;-66
2021/06/20 12:40:48;;;;;;;4.28;3.17;;;31.00;80.30;;;;;;5125914;29;20196;-69
2021/06/20 12:43:22;;;;;;;9.68;2.88;;;31.00;76.10;;;;;;5127894;28;20189;-69
2021/06/20 12:46:06;;;;;;;4.63;2.50;;;31.10;74.20;;;;;;5129964;29;20197;-68
2021/06/20 12:48:40;;;;;;;9.00;3.28;;;31.10;73.50;;;;;;5130245;29;20342;-70
2021/06/20 12:51:13;;;;;;;4.85;3.28;;;31.10;74.40;;;;;;5128826;29;20209;-67
2021/06/20 12:53:48;;;;;;;8.55;2.67;;;31.10;75.20;;;;;;5127856;29;20200;-63
2021/06/20 12:56:26;;;;;;;8.38;2.60;;;31.20;74.60;;;;;;5126925;29;20200;-70
2021/06/20 12:59:07;;;;;;;6.18;2.63;;;31.10;74.40;;;;;;5129505;29;20319;-70
2021/06/20 13:01:48;;;;;;;4.93;2.80;;;31.10;74.20;;;;;;5130900;29;20193;-65
2021/06/20 13:04:20;;;;;;;9.07;3.10;;;31.00;74.60;;;;;;5129900;29;20205;-66
2021/06/20 13:06:53;;;;;;;5.85;2.70;;;31.00;75.40;;;;;;5129971;29;20193;-63
2021/06/20 13:09:25;;;;;;;6.78;2.95;;;31.00;74.60;;;;;;5129425;29;20201;-68
2021/06/20 13:11:57;;;;;;;7.38;2.63;;;31.10;75.00;;;;;;5112021;29;20204;-65
2021/06/20 13:18:43;;;;;;;3.78;2.90;;;31.20;75.10;;;;;;5131153;29;20217;-69
2021/06/20 13:21:15;;;;;;;6.38;3.38;;;31.10;75.00;;;;;;5132034;29;20208;-67
2021/06/20 13:23:47;;;;;;;5.40;3.35;;;31.00;75.40;;;;;;5131418;29;20208;-70
2021/06/20 13:26:19;;;;;;;4.40;3.28;;;31.00;76.00;;;;;;5129955;29;20200;-65